sensor_id;sensor_type;location;lat;lon;timestamp;pressure;altitude;pressure_sealevel;temperature;humidity
25232;BME280;13176;51.140;6.290;2023-04-03T00:00:46;102014.13;;;5.65;66.32
25232;BME280;13176;51.140;6.290;2023-04-03T00:03:13;102104.19;;;6.04;66.72
25232;BME280;13176;51.140;6.290;2023-04-03T00:05:39;102130.63;;;6.24;66.93
25232;BME280;13176;51.140;6.290;2023-04-03T00:08:07;102226.03;;;6.69;66.33
25232;BME280;13176;51.140;6.290;2023-04-03T00:10:36;102186.41;;;6.42;66.83
25232;BME280;13176;51.140;6.290;2023-04-03T00:13:07;102173.78;;;6.23;67.64
25232;BME280;13176;51.140;6.290;2023-04-03T00:15:34;102217.59;;;6.45;67.50
25232;BME280;13176;51.140;6.290;2023-04-03T00:18:02;102224.84;;;6.58;67.37
25232;BME280;13176;51.140;6.290;2023-04-03T00:20:28;102115.78;;;5.87;67.95
25232;BME280;13176;51.140;6.290;2023-04-03T00:22:55;102118.44;;;5.89;67.39
25232;BME280;13176;51.140;6.290;2023-04-03T00:25:21;102049.91;;;5.49;67.32
25232;BME280;13176;51.140;6.290;2023-04-03T00:27:48;102061.59;;;5.64;67.17
25232;BME280;13176;51.140;6.290;2023-04-03T00:30:20;102198.63;;;6.46;67.02
25232;BME280;13176;51.140;6.290;2023-04-03T00:32:50;102102.72;;;5.83;66.53
25232;BME280;13176;51.140;6.290;2023-04-03T00:35:18;102221.66;;;6.36;66.76
25232;BME280;13176;51.140;6.290;2023-04-03T00:37:46;102225.00;;;6.32;67.74
25232;BME280;13176;51.140;6.290;2023-04-03T00:40:14;102124.69;;;5.67;68.36
25232;BME280;13176;51.140;6.290;2023-04-03T00:42:42;102208.06;;;6.13;67.84
25232;BME280;13176;51.140;6.290;2023-04-03T00:47:45;102068.56;;;5.37;68.01
25232;BME280;13176;51.140;6.290;2023-04-03T00:50:12;102096.38;;;5.44;68.45
25232;BME280;13176;51.140;6.290;2023-04-03T00:52:38;102161.91;;;6.00;68.58
25232;BME280;13176;51.140;6.290;2023-04-03T00:55:09;102095.44;;;5.71;67.28
25232;BME280;13176;51.140;6.290;2023-04-03T00:57:36;102208.47;;;6.28;66.86
25232;BME280;13176;51.140;6.290;2023-04-03T01:00:13;102179.88;;;5.94;67.45
25232;BME280;13176;51.140;6.290;2023-04-03T01:02:40;102112.13;;;5.52;68.46
25232;BME280;13176;51.140;6.290;2023-04-03T01:05:07;102229.63;;;6.12;68.82
25232;BME280;13176;51.140;6.290;2023-04-03T01:07:34;102209.47;;;6.02;68.63
25232;BME280;13176;51.140;6.290;2023-04-03T01:10:06;102097.84;;;5.36;68.43
25232;BME280;13176;51.140;6.290;2023-04-03T01:12:39;102053.47;;;4.95;67.92
25232;BME280;13176;51.140;6.290;2023-04-03T01:15:21;102227.88;;;5.83;69.52
25232;BME280;13176;51.140;6.290;2023-04-03T01:17:51;102206.88;;;5.74;68.99
25232;BME280;13176;51.140;6.290;2023-04-03T01:25:46;102195.06;;;5.82;68.52
25232;BME280;13176;51.140;6.290;2023-04-03T01:28:24;102226.47;;;5.94;68.30
25232;BME280;13176;51.140;6.290;2023-04-03T01:33:39;102224.16;;;5.75;68.84
25232;BME280;13176;51.140;6.290;2023-04-03T01:36:07;102217.91;;;5.69;68.98
25232;BME280;13176;51.140;6.290;2023-04-03T01:38:33;102108.06;;;5.04;68.96
25232;BME280;13176;51.140;6.290;2023-04-03T01:41:00;102214.47;;;5.70;68.72
25232;BME280;13176;51.140;6.290;2023-04-03T01:43:27;102096.72;;;4.99;68.25
25232;BME280;13176;51.140;6.290;2023-04-03T01:45:53;102229.47;;;5.78;68.09
25232;BME280;13176;51.140;6.290;2023-04-03T01:48:21;102145.13;;;5.31;69.33
25232;BME280;13176;51.140;6.290;2023-04-03T01:50:47;102138.81;;;5.21;69.61
25232;BME280;13176;51.140;6.290;2023-04-03T01:53:14;102220.19;;;5.58;70.16
25232;BME280;13176;51.140;6.290;2023-04-03T01:55:40;102142.78;;;5.12;69.00
25232;BME280;13176;51.140;6.290;2023-04-03T01:58:07;102129.16;;;4.89;69.12
25232;BME280;13176;51.140;6.290;2023-04-03T02:00:33;102128.16;;;4.86;69.94
25232;BME280;13176;51.140;6.290;2023-04-03T02:03:00;102227.81;;;5.28;70.46
25232;BME280;13176;51.140;6.290;2023-04-03T02:05:27;102120.66;;;4.67;71.82
25232;BME280;13176;51.140;6.290;2023-04-03T02:07:55;102228.50;;;5.22;71.65
25232;BME280;13176;51.140;6.290;2023-04-03T02:10:22;102139.47;;;4.63;71.73
25232;BME280;13176;51.140;6.290;2023-04-03T02:12:48;102249.59;;;5.08;72.50
25232;BME280;13176;51.140;6.290;2023-04-03T02:15:15;102086.25;;;4.18;72.79
25232;BME280;13176;51.140;6.290;2023-04-03T02:17:41;102235.72;;;5.06;72.08
25232;BME280;13176;51.140;6.290;2023-04-03T02:20:08;102154.81;;;4.58;71.77
25232;BME280;13176;51.140;6.290;2023-04-03T02:22:35;102211.22;;;4.95;72.09
25232;BME280;13176;51.140;6.290;2023-04-03T02:25:02;102063.72;;;4.13;72.09
25232;BME280;13176;51.140;6.290;2023-04-03T02:27:28;102124.38;;;4.25;72.94
25232;BME280;13176;51.140;6.290;2023-04-03T02:29:55;102197.25;;;4.90;72.12
25232;BME280;13176;51.140;6.290;2023-04-03T02:32:21;102155.91;;;4.65;71.99
25232;BME280;13176;51.140;6.290;2023-04-03T02:34:48;102088.84;;;4.18;71.73
25232;BME280;13176;51.140;6.290;2023-04-03T02:37:14;102216.50;;;4.98;72.38
25232;BME280;13176;51.140;6.290;2023-04-03T02:39:41;102194.72;;;4.91;72.24
25232;BME280;13176;51.140;6.290;2023-04-03T02:42:07;102196.41;;;4.91;72.24
25232;BME280;13176;51.140;6.290;2023-04-03T02:44:33;102055.28;;;4.18;71.54
25232;BME280;13176;51.140;6.290;2023-04-03T02:47:00;102103.38;;;4.40;72.25
25232;BME280;13176;51.140;6.290;2023-04-03T02:49:26;102253.69;;;5.28;71.80
25232;BME280;13176;51.140;6.290;2023-04-03T02:51:53;102241.59;;;5.27;71.83
25232;BME280;13176;51.140;6.290;2023-04-03T02:54:19;102201.94;;;5.01;71.50
25232;BME280;13176;51.140;6.290;2023-04-03T02:56:45;102174.69;;;4.86;71.58
25232;BME280;13176;51.140;6.290;2023-04-03T02:59:12;102029.25;;;4.12;71.27
25232;BME280;13176;51.140;6.290;2023-04-03T03:01:38;102112.81;;;4.64;71.63
25232;BME280;13176;51.140;6.290;2023-04-03T03:04:05;102228.78;;;5.31;71.53
25232;BME280;13176;51.140;6.290;2023-04-03T03:06:31;102062.88;;;4.40;71.50
25232;BME280;13176;51.140;6.290;2023-04-03T03:08:58;102239.41;;;5.66;71.38
25232;BME280;13176;51.140;6.290;2023-04-03T03:11:24;102272.66;;;5.79;71.21
25232;BME280;13176;51.140;6.290;2023-04-03T03:13:51;102165.53;;;5.22;71.34
25232;BME280;13176;51.140;6.290;2023-04-03T03:16:18;102162.63;;;5.39;71.43
25232;BME280;13176;51.140;6.290;2023-04-03T03:18:44;102141.06;;;5.39;70.04
25232;BME280;13176;51.140;6.290;2023-04-03T03:21:11;102088.72;;;5.19;70.78
25232;BME280;13176;51.140;6.290;2023-04-03T03:23:37;102041.09;;;4.85;70.35
25232;BME280;13176;51.140;6.290;2023-04-03T03:26:06;102244.34;;;6.13;70.34
25232;BME280;13176;51.140;6.290;2023-04-03T03:28:37;102247.25;;;6.25;70.41
25232;BME280;13176;51.140;6.290;2023-04-03T03:31:05;102231.00;;;6.00;70.18
25232;BME280;13176;51.140;6.290;2023-04-03T03:33:31;102233.88;;;6.10;70.29
25232;BME280;13176;51.140;6.290;2023-04-03T03:35:59;102219.81;;;6.02;69.91
25232;BME280;13176;51.140;6.290;2023-04-03T03:38:26;102233.06;;;6.13;69.83
25232;BME280;13176;51.140;6.290;2023-04-03T03:40:52;102236.47;;;6.10;69.91
25232;BME280;13176;51.140;6.290;2023-04-03T03:43:19;102133.66;;;5.51;69.73
25232;BME280;13176;51.140;6.290;2023-04-03T03:45:50;102156.19;;;5.55;70.46
25232;BME280;13176;51.140;6.290;2023-04-03T03:48:16;102247.56;;;6.06;70.02
25232;BME280;13176;51.140;6.290;2023-04-03T03:50:43;102213.81;;;5.75;70.59
25232;BME280;13176;51.140;6.290;2023-04-03T03:53:09;102232.75;;;5.74;71.30
25232;BME280;13176;51.140;6.290;2023-04-03T03:55:36;102233.53;;;5.72;71.26
25232;BME280;13176;51.140;6.290;2023-04-03T03:58:02;102204.66;;;5.58;71.55
25232;BME280;13176;51.140;6.290;2023-04-03T04:00:29;102117.59;;;5.05;71.50
25232;BME280;13176;51.140;6.290;2023-04-03T04:02:56;102088.56;;;4.87;71.51
25232;BME280;13176;51.140;6.290;2023-04-03T04:05:24;102245.25;;;5.87;71.04
25232;BME280;13176;51.140;6.290;2023-04-03T04:07:51;102243.34;;;5.80;70.73
25232;BME280;13176;51.140;6.290;2023-04-03T04:10:17;102234.94;;;5.61;71.16
25232;BME280;13176;51.140;6.290;2023-04-03T04:12:43;102230.63;;;5.61;71.60
25232;BME280;13176;51.140;6.290;2023-04-03T04:15:10;102241.19;;;5.67;70.95
25232;BME280;13176;51.140;6.290;2023-04-03T04:17:37;102161.66;;;5.08;71.01
25232;BME280;13176;51.140;6.290;2023-04-03T04:20:03;102135.78;;;5.08;71.02
25232;BME280;13176;51.140;6.290;2023-04-03T04:22:31;102246.06;;;5.58;71.16
25232;BME280;13176;51.140;6.290;2023-04-03T04:24:57;102256.81;;;5.70;71.43
25232;BME280;13176;51.140;6.290;2023-04-03T04:27:24;102155.97;;;5.19;70.47
25232;BME280;13176;51.140;6.290;2023-04-03T04:29:50;102158.41;;;5.15;70.31
25232;BME280;13176;51.140;6.290;2023-04-03T04:32:16;102266.59;;;5.79;70.65
25232;BME280;13176;51.140;6.290;2023-04-03T04:34:43;102242.66;;;5.59;70.47
25232;BME280;13176;51.140;6.290;2023-04-03T04:37:09;102146.81;;;5.02;70.27
25232;BME280;13176;51.140;6.290;2023-04-03T04:39:36;102258.38;;;5.65;69.98
25232;BME280;13176;51.140;6.290;2023-04-03T04:42:03;102189.53;;;5.18;70.52
25232;BME280;13176;51.140;6.290;2023-04-03T04:44:29;102173.81;;;5.12;70.42
25232;BME280;13176;51.140;6.290;2023-04-03T04:46:56;102131.69;;;4.88;70.18
25232;BME280;13176;51.140;6.290;2023-04-03T04:49:22;102184.09;;;5.09;70.06
25232;BME280;13176;51.140;6.290;2023-04-03T04:51:49;102161.66;;;5.08;69.54
25232;BME280;13176;51.140;6.290;2023-04-03T04:54:18;102180.59;;;5.07;69.56
25232;BME280;13176;51.140;6.290;2023-04-03T04:56:44;102098.16;;;4.64;69.50
25232;BME280;13176;51.140;6.290;2023-04-03T04:59:11;102177.31;;;5.12;70.08
25232;BME280;13176;51.140;6.290;2023-04-03T05:01:37;102259.84;;;5.57;70.18
25232;BME280;13176;51.140;6.290;2023-04-03T05:04:04;102254.75;;;5.60;69.10
25232;BME280;13176;51.140;6.290;2023-04-03T05:06:30;102267.75;;;5.62;69.48
25232;BME280;13176;51.140;6.290;2023-04-03T05:08:58;102300.38;;;5.83;69.69
25232;BME280;13176;51.140;6.290;2023-04-03T05:11:25;102194.97;;;4.99;69.78
25232;BME280;13176;51.140;6.290;2023-04-03T05:13:51;102250.69;;;5.41;69.68
25232;BME280;13176;51.140;6.290;2023-04-03T05:16:18;102275.16;;;5.52;69.81
25232;BME280;13176;51.140;6.290;2023-04-03T05:18:44;102267.88;;;5.39;70.04
25232;BME280;13176;51.140;6.290;2023-04-03T05:21:11;102292.25;;;5.47;69.83
25232;BME280;13176;51.140;6.290;2023-04-03T05:23:37;102213.75;;;5.20;69.49
25232;BME280;13176;51.140;6.290;2023-04-03T05:26:03;102286.50;;;5.55;69.54
25232;BME280;13176;51.140;6.290;2023-04-03T05:28:30;102199.22;;;4.97;69.40
25232;BME280;13176;51.140;6.290;2023-04-03T05:30:57;102288.47;;;5.36;70.09
25232;BME280;13176;51.140;6.290;2023-04-03T05:33:24;102289.53;;;5.42;69.63
25232;BME280;13176;51.140;6.290;2023-04-03T05:35:53;102180.50;;;4.79;70.00
25232;BME280;13176;51.140;6.290;2023-04-03T05:38:20;102291.78;;;5.58;69.67
25232;BME280;13176;51.140;6.290;2023-04-03T05:40:46;102207.69;;;4.93;70.30
25232;BME280;13176;51.140;6.290;2023-04-03T05:43:13;102200.75;;;4.92;70.07
25232;BME280;13176;51.140;6.290;2023-04-03T05:45:42;102246.97;;;5.33;69.98
25232;BME280;13176;51.140;6.290;2023-04-03T05:48:12;102294.81;;;5.71;69.29
25232;BME280;13176;51.140;6.290;2023-04-03T05:50:39;102280.53;;;5.57;69.59
25232;BME280;13176;51.140;6.290;2023-04-03T05:53:15;102304.66;;;5.57;70.27
25232;BME280;13176;51.140;6.290;2023-04-03T05:55:43;102282.06;;;5.51;69.49
25232;BME280;13176;51.140;6.290;2023-04-03T05:58:10;102308.03;;;5.79;69.36
25232;BME280;13176;51.140;6.290;2023-04-03T06:00:37;102247.25;;;5.42;69.49
25232;BME280;13176;51.140;6.290;2023-04-03T06:03:03;102329.50;;;5.76;69.34
25232;BME280;13176;51.140;6.290;2023-04-03T06:05:30;102309.31;;;5.66;69.98
25232;BME280;13176;51.140;6.290;2023-04-03T06:07:56;102327.88;;;5.78;69.66
25232;BME280;13176;51.140;6.290;2023-04-03T06:10:23;102302.81;;;5.53;70.01
25232;BME280;13176;51.140;6.290;2023-04-03T06:12:50;102310.34;;;5.71;69.96
25232;BME280;13176;51.140;6.290;2023-04-03T06:15:17;102305.91;;;5.67;70.49
25232;BME280;13176;51.140;6.290;2023-04-03T06:17:44;102299.28;;;5.77;69.87
25232;BME280;13176;51.140;6.290;2023-04-03T06:20:11;102328.44;;;5.96;69.20
25232;BME280;13176;51.140;6.290;2023-04-03T06:22:38;102291.75;;;5.83;69.64
25232;BME280;13176;51.140;6.290;2023-04-03T06:25:05;102331.09;;;5.98;70.12
25232;BME280;13176;51.140;6.290;2023-04-03T06:27:34;102189.44;;;5.15;70.19
25232;BME280;13176;51.140;6.290;2023-04-03T06:30:01;102230.63;;;5.35;69.52
25232;BME280;13176;51.140;6.290;2023-04-03T06:32:27;102283.34;;;5.65;70.06
25232;BME280;13176;51.140;6.290;2023-04-03T06:34:54;102331.22;;;6.02;70.12
25232;BME280;13176;51.140;6.290;2023-04-03T06:37:22;102338.69;;;6.21;69.70
25232;BME280;13176;51.140;6.290;2023-04-03T06:39:48;102112.84;;;4.92;68.94
25232;BME280;13176;51.140;6.290;2023-04-03T06:42:15;102300.03;;;5.99;69.62
25232;BME280;13176;51.140;6.290;2023-04-03T06:44:42;102326.56;;;6.20;69.59
25232;BME280;13176;51.140;6.290;2023-04-03T06:47:13;102353.22;;;6.44;69.81
25232;BME280;13176;51.140;6.290;2023-04-03T06:49:39;102232.22;;;5.84;69.64
25232;BME280;13176;51.140;6.290;2023-04-03T06:52:06;102334.72;;;6.32;69.23
25232;BME280;13176;51.140;6.290;2023-04-03T06:54:33;102225.22;;;5.80;69.84
25232;BME280;13176;51.140;6.290;2023-04-03T06:56:59;102304.53;;;6.34;68.78
25232;BME280;13176;51.140;6.290;2023-04-03T06:59:26;102355.66;;;6.68;69.13
25232;BME280;13176;51.140;6.290;2023-04-03T07:01:52;102212.44;;;5.86;69.14
25232;BME280;13176;51.140;6.290;2023-04-03T07:04:19;102323.69;;;6.39;68.91
25232;BME280;13176;51.140;6.290;2023-04-03T07:06:47;102357.41;;;6.69;69.49
25232;BME280;13176;51.140;6.290;2023-04-03T07:09:14;102224.81;;;5.96;69.43
25232;BME280;13176;51.140;6.290;2023-04-03T07:11:41;102375.06;;;6.81;68.79
25232;BME280;13176;51.140;6.290;2023-04-03T07:14:07;102273.41;;;6.33;68.29
25232;BME280;13176;51.140;6.290;2023-04-03T07:16:35;102356.78;;;6.77;68.43
25232;BME280;13176;51.140;6.290;2023-04-03T07:19:02;102149.53;;;5.62;68.57
25232;BME280;13176;51.140;6.290;2023-04-03T07:21:29;102371.78;;;6.87;68.09
25232;BME280;13176;51.140;6.290;2023-04-03T07:23:55;102354.22;;;6.78;67.71
25232;BME280;13176;51.140;6.290;2023-04-03T07:26:22;102276.03;;;6.34;68.26
25232;BME280;13176;51.140;6.290;2023-04-03T07:28:48;102354.75;;;6.96;67.87
25232;BME280;13176;51.140;6.290;2023-04-03T07:31:16;102338.38;;;6.99;67.66
25232;BME280;13176;51.140;6.290;2023-04-03T07:33:45;102262.81;;;6.56;68.06
25232;BME280;13176;51.140;6.290;2023-04-03T07:36:17;102243.44;;;6.42;67.78
25232;BME280;13176;51.140;6.290;2023-04-03T07:38:44;102373.72;;;7.25;67.76
25232;BME280;13176;51.140;6.290;2023-04-03T07:41:14;102227.31;;;6.52;67.43
25232;BME280;13176;51.140;6.290;2023-04-03T07:43:41;102369.66;;;7.36;66.91
25232;BME280;13176;51.140;6.290;2023-04-03T07:46:11;102356.59;;;7.33;67.01
25232;BME280;13176;51.140;6.290;2023-04-03T07:48:37;102365.47;;;7.41;66.36
25232;BME280;13176;51.140;6.290;2023-04-03T07:51:04;102314.69;;;7.18;65.93
25232;BME280;13176;51.140;6.290;2023-04-03T07:53:31;102337.81;;;7.43;65.31
25232;BME280;13176;51.140;6.290;2023-04-03T07:55:59;102381.88;;;7.74;65.41
25232;BME280;13176;51.140;6.290;2023-04-03T07:58:25;102236.19;;;6.94;64.85
25232;BME280;13176;51.140;6.290;2023-04-03T08:00:52;102282.97;;;6.97;62.43
25232;BME280;13176;51.140;6.290;2023-04-03T08:03:18;102369.47;;;7.61;63.79
25232;BME280;13176;51.140;6.290;2023-04-03T08:05:46;102378.75;;;7.87;62.85
25232;BME280;13176;51.140;6.290;2023-04-03T08:08:16;102394.28;;;7.84;63.79
25232;BME280;13176;51.140;6.290;2023-04-03T08:10:49;102376.06;;;7.82;64.09
25232;BME280;13176;51.140;6.290;2023-04-03T08:13:16;102392.66;;;7.88;62.99
25232;BME280;13176;51.140;6.290;2023-04-03T08:15:42;102385.94;;;7.96;62.39
25232;BME280;13176;51.140;6.290;2023-04-03T08:18:09;102370.34;;;7.96;62.86
25232;BME280;13176;51.140;6.290;2023-04-03T08:20:37;102308.16;;;7.69;61.89
25232;BME280;13176;51.140;6.290;2023-04-03T08:23:04;102375.22;;;8.18;60.53
25232;BME280;13176;51.140;6.290;2023-04-03T08:25:31;102290.97;;;7.74;59.40
25232;BME280;13176;51.140;6.290;2023-04-03T08:27:57;102377.63;;;8.48;61.23
25232;BME280;13176;51.140;6.290;2023-04-03T08:30:24;102343.59;;;8.37;60.73
25232;BME280;13176;51.140;6.290;2023-04-03T08:32:51;102370.06;;;8.58;59.19
25232;BME280;13176;51.140;6.290;2023-04-03T08:35:17;102383.13;;;8.63;59.97
25232;BME280;13176;51.140;6.290;2023-04-03T08:37:46;102361.34;;;8.56;58.09
25232;BME280;13176;51.140;6.290;2023-04-03T08:40:16;102394.81;;;8.81;56.38
25232;BME280;13176;51.140;6.290;2023-04-03T08:45:46;102370.59;;;8.85;54.81
25232;BME280;13176;51.140;6.290;2023-04-03T08:48:22;102381.41;;;9.03;56.28
25232;BME280;13176;51.140;6.290;2023-04-03T08:50:54;102407.91;;;9.27;54.71
25232;BME280;13176;51.140;6.290;2023-04-03T08:53:23;102400.81;;;9.20;54.72
25232;BME280;13176;51.140;6.290;2023-04-03T08:55:53;102289.78;;;8.78;54.48
25232;BME280;13176;51.140;6.290;2023-04-03T08:58:30;102383.50;;;9.22;53.01
25232;BME280;13176;51.140;6.290;2023-04-03T09:01:05;102357.19;;;9.08;52.99
25232;BME280;13176;51.140;6.290;2023-04-03T09:03:38;102391.13;;;9.59;52.38
25232;BME280;13176;51.140;6.290;2023-04-03T09:06:23;102392.66;;;9.48;53.08
25232;BME280;13176;51.140;6.290;2023-04-03T09:09:05;102395.88;;;9.84;51.27
25232;BME280;13176;51.140;6.290;2023-04-03T09:14:24;102349.75;;;9.77;50.47
25232;BME280;13176;51.140;6.290;2023-04-03T09:16:55;102411.13;;;10.09;48.91
25232;BME280;13176;51.140;6.290;2023-04-03T09:19:45;102390.47;;;10.23;49.31
25232;BME280;13176;51.140;6.290;2023-04-03T09:22:23;102382.97;;;10.46;49.17
25232;BME280;13176;51.140;6.290;2023-04-03T09:25:23;102380.34;;;10.44;47.80
25232;BME280;13176;51.140;6.290;2023-04-03T09:27:51;102392.63;;;10.51;45.92
25232;BME280;13176;51.140;6.290;2023-04-03T09:30:21;102403.00;;;10.45;46.96
25232;BME280;13176;51.140;6.290;2023-04-03T09:32:51;102356.00;;;10.45;46.69
25232;BME280;13176;51.140;6.290;2023-04-03T09:35:26;102366.53;;;10.51;45.18
25232;BME280;13176;51.140;6.290;2023-04-03T09:40:38;102237.84;;;9.90;44.38
25232;BME280;13176;51.140;6.290;2023-04-03T09:43:27;102363.50;;;10.85;43.87
25232;BME280;13176;51.140;6.290;2023-04-03T09:45:55;102281.13;;;10.38;41.40
25232;BME280;13176;51.140;6.290;2023-04-03T09:48:24;102372.47;;;11.08;41.26
25232;BME280;13176;51.140;6.290;2023-04-03T09:53:35;102371.25;;;11.55;42.53
25232;BME280;13176;51.140;6.290;2023-04-03T09:56:18;102360.72;;;11.52;41.69
25232;BME280;13176;51.140;6.290;2023-04-03T09:58:51;102369.81;;;11.90;42.75
25232;BME280;13176;51.140;6.290;2023-04-03T10:01:32;102373.34;;;11.98;41.01
25232;BME280;13176;51.140;6.290;2023-04-03T10:04:05;102370.84;;;12.16;42.25
25232;BME280;13176;51.140;6.290;2023-04-03T10:06:39;102368.25;;;12.16;39.46
25232;BME280;13176;51.140;6.290;2023-04-03T10:09:27;102286.91;;;11.78;41.85
25232;BME280;13176;51.140;6.290;2023-04-03T10:12:08;102378.69;;;12.13;39.48
25232;BME280;13176;51.140;6.290;2023-04-03T10:14:54;102372.47;;;12.02;40.67
25232;BME280;13176;51.140;6.290;2023-04-03T10:20:06;102337.66;;;12.07;40.01
25232;BME280;13176;51.140;6.290;2023-04-03T10:28:01;102259.97;;;11.96;38.78
25232;BME280;13176;51.140;6.290;2023-04-03T10:30:42;102324.03;;;12.66;39.94
25232;BME280;13176;51.140;6.290;2023-04-03T10:44:51;102347.84;;;13.68;35.34
25232;BME280;13176;51.140;6.290;2023-04-03T10:47:40;102347.09;;;15.68;35.75
25232;BME280;13176;51.140;6.290;2023-04-03T10:50:43;102334.81;;;17.78;31.74
25232;BME280;13176;51.140;6.290;2023-04-03T10:58:57;102301.25;;;20.49;27.75
25232;BME280;13176;51.140;6.290;2023-04-03T11:01:29;102217.84;;;20.29;27.21
25232;BME280;13176;51.140;6.290;2023-04-03T11:04:01;102301.41;;;20.43;26.64
25232;BME280;13176;51.140;6.290;2023-04-03T11:06:48;102266.88;;;20.75;26.11
25232;BME280;13176;51.140;6.290;2023-04-03T11:12:10;102259.13;;;20.67;25.50
25232;BME280;13176;51.140;6.290;2023-04-03T11:14:40;102269.19;;;21.68;25.36
25232;BME280;13176;51.140;6.290;2023-04-03T11:22:56;102271.69;;;21.96;25.34
25232;BME280;13176;51.140;6.290;2023-04-03T11:25:25;102212.31;;;21.20;25.02
25232;BME280;13176;51.140;6.290;2023-04-03T11:30:46;102184.13;;;21.42;24.12
25232;BME280;13176;51.140;6.290;2023-04-03T11:35:37;102276.34;;;21.66;26.14
25232;BME280;13176;51.140;6.290;2023-04-03T11:38:17;102273.56;;;21.43;25.34
25232;BME280;13176;51.140;6.290;2023-04-03T11:40:46;102269.28;;;21.11;24.86
25232;BME280;13176;51.140;6.290;2023-04-03T11:43:22;102243.72;;;20.80;26.63
25232;BME280;13176;51.140;6.290;2023-04-03T11:45:53;102168.72;;;19.85;27.81
25232;BME280;13176;51.140;6.290;2023-04-03T11:50:59;102263.72;;;20.32;27.90
25232;BME280;13176;51.140;6.290;2023-04-03T11:53:40;102237.94;;;19.73;28.21
25232;BME280;13176;51.140;6.290;2023-04-03T12:01:53;102254.53;;;20.13;26.54
25232;BME280;13176;51.140;6.290;2023-04-03T12:04:24;102231.47;;;20.17;26.82
25232;BME280;13176;51.140;6.290;2023-04-03T12:07:18;102258.81;;;19.85;27.63
25232;BME280;13176;51.140;6.290;2023-04-03T12:12:40;102242.59;;;19.97;29.78
25232;BME280;13176;51.140;6.290;2023-04-03T12:15:24;102235.94;;;19.15;28.93
25232;BME280;13176;51.140;6.290;2023-04-03T12:17:52;102212.25;;;19.09;28.24
25232;BME280;13176;51.140;6.290;2023-04-03T12:20:56;102228.75;;;19.86;28.78
25232;BME280;13176;51.140;6.290;2023-04-03T12:23:24;102229.75;;;19.51;29.57
25232;BME280;13176;51.140;6.290;2023-04-03T12:25:51;102203.44;;;20.08;28.30
25232;BME280;13176;51.140;6.290;2023-04-03T12:28:18;102188.50;;;19.72;27.87
25232;BME280;13176;51.140;6.290;2023-04-03T12:30:44;102171.94;;;19.96;27.72
25232;BME280;13176;51.140;6.290;2023-04-03T12:33:24;102227.84;;;20.19;26.76
25232;BME280;13176;51.140;6.290;2023-04-03T12:36:04;102215.97;;;19.37;26.19
25232;BME280;13176;51.140;6.290;2023-04-03T12:38:45;102226.47;;;19.41;27.95
25232;BME280;13176;51.140;6.290;2023-04-03T12:44:16;102062.28;;;18.00;28.18
25232;BME280;13176;51.140;6.290;2023-04-03T12:46:49;102230.59;;;19.18;28.03
25232;BME280;13176;51.140;6.290;2023-04-03T12:51:53;102201.63;;;19.10;28.60
25232;BME280;13176;51.140;6.290;2023-04-03T12:54:23;102073.44;;;18.13;26.52
25232;BME280;13176;51.140;6.290;2023-04-03T12:57:09;102185.84;;;19.41;26.69
25232;BME280;13176;51.140;6.290;2023-04-03T12:59:38;102065.81;;;18.75;26.89
25232;BME280;13176;51.140;6.290;2023-04-03T13:02:17;102194.00;;;18.97;25.31
25232;BME280;13176;51.140;6.290;2023-04-03T13:04:48;102166.09;;;19.20;28.56
25232;BME280;13176;51.140;6.290;2023-04-03T13:07:29;102174.44;;;18.28;25.44
25232;BME280;13176;51.140;6.290;2023-04-03T13:10:00;102161.16;;;18.69;28.08
25232;BME280;13176;51.140;6.290;2023-04-03T13:12:28;102133.06;;;18.65;26.37
25232;BME280;13176;51.140;6.290;2023-04-03T13:15:00;102169.81;;;18.77;26.62
25232;BME280;13176;51.140;6.290;2023-04-03T13:17:30;102108.72;;;18.51;27.45
25232;BME280;13176;51.140;6.290;2023-04-03T13:20:11;102097.47;;;18.02;25.71
25232;BME280;13176;51.140;6.290;2023-04-03T13:22:50;102148.78;;;19.06;28.64
25232;BME280;13176;51.140;6.290;2023-04-03T13:25:20;102178.75;;;19.43;27.22
25232;BME280;13176;51.140;6.290;2023-04-03T13:27:48;102088.47;;;18.50;26.63
25232;BME280;13176;51.140;6.290;2023-04-03T13:30:39;102140.50;;;19.21;28.55
25232;BME280;13176;51.140;6.290;2023-04-03T13:33:23;102184.78;;;19.13;28.56
25232;BME280;13176;51.140;6.290;2023-04-03T13:36:17;102175.38;;;19.01;28.88
25232;BME280;13176;51.140;6.290;2023-04-03T13:38:45;102100.81;;;18.84;27.61
25232;BME280;13176;51.140;6.290;2023-04-03T13:41:25;102183.72;;;18.85;26.05
25232;BME280;13176;51.140;6.290;2023-04-03T13:43:52;102164.19;;;19.27;27.89
25232;BME280;13176;51.140;6.290;2023-04-03T13:46:27;102157.22;;;19.23;28.42
25232;BME280;13176;51.140;6.290;2023-04-03T13:48:56;102180.03;;;18.92;26.28
25232;BME280;13176;51.140;6.290;2023-04-03T13:51:26;102168.88;;;19.16;25.19
25232;BME280;13176;51.140;6.290;2023-04-03T13:53:55;102169.53;;;18.89;27.54
25232;BME280;13176;51.140;6.290;2023-04-03T14:01:54;102168.97;;;19.10;28.59
25232;BME280;13176;51.140;6.290;2023-04-03T14:04:24;102076.22;;;18.46;28.67
25232;BME280;13176;51.140;6.290;2023-04-03T14:06:52;102086.25;;;18.68;25.18
25232;BME280;13176;51.140;6.290;2023-04-03T14:09:20;102083.25;;;19.17;27.91
25232;BME280;13176;51.140;6.290;2023-04-03T14:11:49;102144.22;;;19.47;26.73
25232;BME280;13176;51.140;6.290;2023-04-03T14:14:23;102053.81;;;19.29;25.08
25232;BME280;13176;51.140;6.290;2023-04-03T14:16:54;102138.03;;;19.47;26.16
25232;BME280;13176;51.140;6.290;2023-04-03T14:19:27;102138.09;;;19.44;26.29
25232;BME280;13176;51.140;6.290;2023-04-03T14:21:55;102049.72;;;18.84;27.58
25232;BME280;13176;51.140;6.290;2023-04-03T14:24:22;102102.41;;;18.56;25.49
25232;BME280;13176;51.140;6.290;2023-04-03T14:26:51;102143.41;;;19.09;27.25
25232;BME280;13176;51.140;6.290;2023-04-03T14:29:18;102127.03;;;19.30;28.52
25232;BME280;13176;51.140;6.290;2023-04-03T14:31:46;102098.72;;;19.63;27.12
25232;BME280;13176;51.140;6.290;2023-04-03T14:34:14;102121.69;;;19.31;27.63